Latest Coastal Weather Observations for Whyalla

IDS60701

Issued at 4:51 pm CDT Monday 23 October 2017 (issued every 10 minutes, with the page automatically refreshed every 10 minutes)

About coastal observations | Map of coastal stations | Coastal observations for SA | Marine services | Other Formats
Station Details ID: 018120 Name: WHYALLA AERO Lat: -33.05 Lon: 137.52 Height: 9.3 m
Data from the previous 72 hours. | See also: Recent months at Whyalla
Date/Time
CDT
Temp
°C
Wind Pressure Rain since
9am
mm
Weather Cloud Vis
km
Sea
Height
m
Swell
Dir  Spd
kts
Gust
kts
hPa Trend Height
m
Period
s
Dir
23/04:30pm 24.0 ESE 11 14 1014.1 - 0.0 - - 10 - - - -
23/04:00pm 24.6 ESE 11 14 1014.4 - 0.0 - - 10 - - - -
23/03:30pm 23.8 ESE 12 15 1014.7 - 0.0 - - 10 - - - -
23/03:00pm 23.4 ESE 11 14 1015.0 - 0.0 - Cloudy 10 - - - -
23/02:30pm 23.4 E 11 14 1015.5 - 0.0 - - 10 - - - -
23/02:00pm 22.5 ESE 11 14 1015.9 - 0.0 - - 10 - - - -
23/01:30pm 23.8 ESE 9 12 1016.3 - 0.0 - - 10 - - - -
23/01:00pm 21.9 SE 9 11 1016.8 - 0.0 - - 10 - - - -
23/12:30pm 20.6 SE 9 13 1017.3 - 0.0 - - 10 - - - -
23/12:00pm 22.4 E 8 12 1017.4 - 0.0 - - 10 - - - -
23/11:30am 21.7 N 4 9 1017.8 - 0.0 - - 10 - - - -
23/11:00am 19.9 E 5 9 1018.2 - 0.0 - - 10 - - - -
23/10:30am 18.7 ESE 5 9 1018.6 - 0.0 - - 10 - - - -
23/10:00am 17.3 SE 6 8 1018.9 - 0.0 - - 10 - - - -
23/09:30am 17.5 SE 6 8 1019.0 - 0.0 - - 10 - - - -
23/09:00am 16.3 SSE 5 7 1019.2 - 0.0 - - 10 - - - -
23/08:30am 15.7 SE 6 8 1019.3 - 0.0 - - 10 - - - -
23/08:00am 13.8 CALM 0 0 1019.3 - 0.0 - - 10 - - - -
23/07:30am 11.2 CALM 0 0 1019.0 - 0.0 - - 10 - - - -
23/07:00am 9.0 W 4 4 1019.1 - 0.0 - - - - - - -
23/06:30am 8.5 SW 4 5 1019.0 - 0.0 - - 10 - - - -
23/06:00am 9.7 CALM 0 0 1019.0 - 0.0 - - 10 - - - -
23/05:30am 12.1 SE 4 5 1018.7 - 0.0 - - - - - - -
23/05:00am 12.9 SE 4 5 1018.7 - 0.0 - - - - - - -
23/04:30am 13.3 SE 6 7 1018.6 - 0.0 - Partly cloudy - - - - -
23/04:00am 13.7 SSE 7 9 1019.0 - 0.0 - - - - - - -
23/03:30am 13.8 SSE 6 8 1019.3 - 0.0 - - - - - - -
23/03:00am 13.9 SSE 7 9 1019.7 - 0.0 - Mostly clear - - - - -
23/02:30am 14.2 SSE 7 9 1020.0 - 0.0 - Partly cloudy - - - - -
23/02:00am 14.3 SSE 8 10 1020.3 - 0.0 - Partly cloudy - - - - -
23/01:30am 14.2 SSE 6 10 1020.7 - 0.0 - Partly cloudy - - - - -
23/01:00am 14.7 SSE 9 11 1020.9 - 0.0 - Partly cloudy 10 - - - -
23/12:30am 14.6 SSE 8 13 1020.9 - 0.0 - Partly cloudy 10 - - - -
23/12:00am 14.9 SE 10 13 1020.7 - 0.0 - Mostly clear 10 - - - -
 
Date/Time
CDT
Temp
°C
Wind Pressure Rain since
9am
mm
Weather Cloud Vis
km
Sea
Height
m
Swell
Dir  Spd
kts
Gust
kts
hPa Trend Height
m
Period
s
Dir
22/11:30pm 15.2 SSE 11 15 1020.8 - 0.0 - - 10 - - - -
22/11:00pm 15.3 SSE 10 15 1021.0 - 0.0 - Partly cloudy 10 - - - -
22/10:30pm 15.4 S 11 17 1021.0 - 0.0 - Partly cloudy - - - - -
22/10:00pm 15.2 S 12 17 1021.1 - 0.0 - - - - - - -
22/09:30pm 15.2 S 12 15 1020.9 - 0.0 - - 10 - - - -
22/09:00pm 15.3 SSW 13 17 1021.1 - 0.0 - - 10 - - - -
22/08:30pm 15.4 S 14 19 1021.0 - 0.0 - - 10 - - - -
22/08:00pm 15.4 S 15 20 1020.9 - 0.0 - - 10 - - - -
22/07:30pm 15.7 S 16 20 1020.7 - 0.0 - - 10 - - - -
22/07:00pm 16.4 S 15 21 1020.3 - 0.0 - - 10 - - - -
22/06:30pm 16.8 S 17 22 1020.3 - 0.0 - - 10 - - - -
22/06:00pm 17.8 S 15 20 1020.3 - 0.0 - - 10 - - - -
22/05:30pm 17.9 SSE 13 17 1020.4 - 0.0 - - 10 - - - -
22/05:00pm 18.4 S 12 16 1020.5 - 0.0 - - 10 - - - -
22/04:30pm 18.6 S 12 16 1021.0 - 0.0 - - 10 - - - -
22/04:00pm 17.7 S 11 17 1021.0 - 0.0 - - 10 - - - -
22/03:30pm 17.5 S 11 16 1021.2 - 0.0 - - 10 - - - -
22/03:00pm 17.3 SSE 10 13 1021.6 - 0.0 - Mostly clear 10 - - - -
22/02:30pm 17.8 S 11 17 1022.0 - 0.0 - Cloudy 10 - - - -
22/02:00pm 16.7 SSE 11 15 1022.3 - 0.0 - Cloudy 10 - - - -
22/01:30pm 16.3 S 12 16 1022.7 - 0.0 - Cloudy 10 - - - -
22/01:00pm 16.0 S 11 16 1023.1 - 0.0 - Cloudy 10 - - - -
22/12:30pm 16.1 SE 11 15 1023.3 - 0.0 - Cloudy 10 - - - -
22/12:00pm 15.2 SSE 11 16 1023.8 - 0.0 - Cloudy 10 - - - -
22/11:30am 15.4 SSE 11 16 1023.8 - 0.0 - Cloudy 10 - - - -
22/11:03am 14.4 ESE 10 14 1023.9 - 0.0 - Partly cloudy 10 - - - -
22/11:00am 14.4 SE 11 15 1023.9 - 0.0 - Partly cloudy 10 - - - -
22/10:53am 14.3 SE 11 16 1023.9 - 0.0 - Partly cloudy 10 - - - -
22/10:30am 14.1 SE 10 14 1024.0 - 0.0 - Partly cloudy 10 - - - -
22/10:00am 14.2 SE 14 20 1024.0 - 0.0 - Partly cloudy 10 - - - -
22/09:30am 15.3 SSE 11 16 1023.8 - 0.0 - Partly cloudy 10 - - - -
22/09:00am 14.3 SSE 12 18 1023.7 - 0.0 - Cloudy 10 - - - -
22/08:30am 13.8 SE 10 14 1023.8 - 0.0 - Partly cloudy 10 - - - -
22/08:00am 14.1 SE 10 14 1023.7 - 0.0 - Partly cloudy 10 - - - -
22/07:30am 13.8 S 10 14 1023.6 - 0.0 - Cloudy 10 - - - -
22/07:00am 13.7 SSE 11 17 1023.4 - 0.0 - Cloudy 10 - - - -
22/06:30am 13.3 SSE 10 13 1023.3 - 0.0 - Cloudy 10 - - - -
22/06:00am 13.4 SSE 12 17 1023.2 - 0.0 - Mostly cloudy 10 - - - -
22/05:30am 13.3 SSE 11 15 1023.1 - 0.0 - Cloudy 10 - - - -
22/05:00am 13.4 SSE 13 17 1023.1 - 0.0 - Cloudy 10 - - - -
22/04:30am 13.7 SSE 9 13 1023.0 - 0.0 - Cloudy 10 - - - -
22/04:00am 13.8 SSE 11 15 1023.0 - 0.0 - Cloudy 10 - - - -
22/03:30am 13.8 S 12 17 1023.2 - 0.0 - Cloudy 10 - - - -
22/03:00am 13.7 S 12 16 1023.5 - 0.0 - Mostly cloudy 10 - - - -
22/02:30am 13.9 SSE 13 20 1023.7 - 0.0 - Cloudy 10 - - - -
22/02:00am 14.0 SSE 12 19 1024.1 - 0.0 - Cloudy 10 - - - -
22/01:30am 14.3 SSE 13 19 1024.3 - 0.0 - Cloudy 10 - - - -
22/01:00am 14.4 SSE 12 17 1024.6 - 0.0 - Cloudy 10 - - - -
22/12:30am 14.5 SSE 12 17 1024.9 - 0.0 - Cloudy 10 - - - -
22/12:00am 14.4 SSE 11 17 1025.1 - 0.0 - Cloudy 10 - - - -
 
Date/Time
CDT
Temp
°C
Wind Pressure Rain since
9am
mm
Weather Cloud Vis
km
Sea
Height
m
Swell
Dir  Spd
kts
Gust
kts
hPa Trend Height
m
Period
s
Dir
21/11:30pm 14.6 SSE 13 19 1025.5 - 0.0 - Partly cloudy 10 - - - -
21/11:00pm 14.7 SE 14 20 1025.7 - 0.0 - Cloudy 10 - - - -
21/10:30pm 15.0 SSE 13 18 1025.9 - 0.0 - Partly cloudy 10 - - - -
21/10:00pm 15.3 S 16 21 1026.0 - 0.0 - Partly cloudy 10 - - - -
21/09:30pm 14.8 SSW 13 19 1026.1 - 0.0 - Partly cloudy 10 - - - -
21/09:00pm 14.9 SSW 17 23 1025.9 - 0.0 - Mostly clear 10 - - - -
21/08:30pm 14.9 SSW 19 26 1025.6 - 0.0 - Partly cloudy 10 - - - -
21/08:00pm 14.9 SSW 19 25 1025.3 - 0.0 - - 10 - - - -
21/07:30pm 15.4 SSW 20 27 1025.3 - 0.0 - - 10 - - - -
21/07:00pm 16.3 SSW 19 25 1025.1 - 0.0 - - 10 - - - -
21/06:30pm 16.6 S 19 24 1025.1 - 0.0 - - 10 - - - -
21/06:00pm 17.0 S 22 28 1024.9 - 0.0 - - 10 - - - -
21/05:30pm 17.5 S 18 25 1025.0 - 0.0 - - 10 - - - -
21/05:00pm 18.3 S 17 24 1024.9 - 0.0 - - 10 - - - -
21/04:30pm 17.7 S 19 25 1025.1 - 0.0 - - 10 - - - -
21/04:00pm 19.2 S 17 24 1025.5 - 0.0 - - 10 - - - -
21/03:30pm 18.7 SSW 15 21 1025.7 - 0.0 - - 10 - - - -
21/03:00pm 18.0 SSW 13 19 1026.0 - 0.0 - - 10 - - - -
21/02:30pm 18.4 SSW 11 17 1026.7 - 0.0 - - 10 - - - -
21/02:00pm 17.4 S 12 17 1027.2 - 0.0 - - 10 - - - -
21/01:30pm 16.9 S 12 19 1027.6 - 0.0 - - 10 - - - -
21/01:00pm 16.1 S 13 18 1027.8 - 0.0 - - 10 - - - -
21/12:30pm 15.9 SSW 12 18 1028.2 - 0.0 - Partly cloudy 10 - - - -
21/12:00pm 15.1 SSE 13 17 1028.7 - 0.0 - - 10 - - - -
21/11:30am 15.0 SSE 13 18 1028.9 - 0.0 - Partly cloudy 10 - - - -
21/11:00am 15.4 SSE 12 18 1029.3 - 0.0 - Partly cloudy 10 - - - -
21/10:30am 14.3 SSE 12 18 1029.9 - 0.0 - Partly cloudy 10 - - - -
21/10:00am 13.8 SSE 11 16 1029.8 - 0.0 - - 10 - - - -
21/09:30am 13.5 SE 12 16 1029.8 - 0.0 - - 10 - - - -
21/09:00am 12.8 SSE 13 17 1029.8 - 0.0 - - 10 - - - -
21/08:30am 12.8 SSE 14 20 1029.3 - 0.0 - - 10 - - - -
21/08:00am 12.2 SE 13 18 1029.1 - 0.0 - - 10 - - - -
21/07:30am 11.8 SE 11 16 1028.9 - 0.0 - - 10 - - - -
21/07:00am 11.3 SE 11 17 1028.8 - 0.0 - - 10 - - - -
21/06:30am 11.1 SSE 11 15 1028.5 - 0.0 - - 10 - - - -
21/06:00am 11.4 SE 11 15 1028.5 - 0.0 - Mostly clear 10 - - - -
21/05:30am 11.7 SSE 12 17 1028.5 - 0.0 - Partly cloudy 10 - - - -
21/05:00am 11.9 SSE 11 16 1028.5 - 0.0 - Partly cloudy 10 - - - -
21/04:30am 12.0 SSE 11 16 1028.6 - 0.0 - Partly cloudy 10 - - - -
21/04:00am 12.1 SSE 11 16 1028.7 - 0.0 - Partly cloudy 10 - - - -
21/03:30am 12.3 SSE 11 16 1028.7 - 0.0 - Partly cloudy 10 - - - -
21/03:00am 12.4 SSE 11 15 1028.9 - 0.0 - - 10 - - - -
21/02:30am 12.7 SE 11 15 1029.1 - 0.0 - - 10 - - - -
21/02:00am 12.8 SE 11 15 1029.6 - 0.0 - - 10 - - - -
21/01:30am 12.9 SE 10 14 1030.0 - 0.0 - - 10 - - - -
21/01:00am 13.3 SE 12 18 1030.2 - 0.0 - - 10 - - - -
21/12:30am 13.7 SE 13 19 1030.2 - 0.0 - - 10 - - - -
21/12:00am 14.1 SSE 14 19 1030.2 - 0.0 - Mostly clear 10 - - - -
 
Date/Time
CDT
Temp
°C
Wind Pressure Rain since
9am
mm
Weather Cloud Vis
km
Sea
Height
m
Swell
Dir  Spd
kts
Gust
kts
hPa Trend Height
m
Period
s
Dir
20/11:30pm 14.5 SSE 14 19 1030.2 - 0.0 - Partly cloudy 10 - - - -
20/11:00pm 14.5 SSE 15 22 1030.2 - 0.0 - - 10 - - - -
20/10:30pm 14.6 SSE 17 26 1030.1 - 0.0 - - 10 - - - -
20/10:26pm 14.6 SSE 16 26 1030.1 - 0.0 - - 10 - - - -
20/10:00pm 14.8 S 17 25 1029.9 - 0.0 - - 10 - - - -
20/09:30pm 15.3 SSE 17 23 1029.9 - 0.0 - - 10 - - - -
20/09:00pm 16.0 SSE 17 24 1029.5 - 0.0 - - 10 - - - -
20/08:30pm 16.6 SSE 15 22 1029.2 - 0.0 - - 10 - - - -
20/08:00pm 16.7 SSW 19 24 1028.9 - 0.0 - - 10 - - - -
20/07:30pm 16.7 SSW 20 24 1028.5 - 0.0 - - 10 - - - -
20/07:00pm 17.1 SSW 21 27 1028.1 - 0.0 - - 10 - - - -
20/06:30pm 17.7 SSW 22 29 1027.8 - 0.0 - - 10 - - - -
20/06:00pm 17.8 SSW 23 29 1027.7 - 0.0 - - 10 - - - -
20/05:30pm 18.0 SSW 23 30 1027.7 - 0.0 - - 10 - - - -
20/05:00pm 18.4 SSW 22 28 1027.6 - 0.0 - - 10 - - - -

Other Formats:

Comma delimited format used in spreadsheet applications
http://www.bom.gov.au/fwo/IDS60701/IDS60701.95664.axf

JavaScript Object Notation format (JSON) in row-major order
http://www.bom.gov.au/fwo/IDS60701/IDS60701.95664.json